createdAt,value
2019-03-01T00:01:59.750Z,66.41
2019-03-01T00:05:00.629Z,66.06
2019-03-01T00:11:31.538Z,65.72
2019-03-01T00:14:36.266Z,65.85
2019-03-01T00:17:48.193Z,65.15
2019-03-01T00:20:42.615Z,65.56
2019-03-01T00:23:47.786Z,64.87
2019-03-01T00:27:03.673Z,66.00
2019-03-01T00:29:47.916Z,66.64
2019-03-01T00:33:00.437Z,65.57
2019-03-01T00:35:56.133Z,65.63
2019-03-01T00:38:54.290Z,66.68
2019-03-01T00:41:43.477Z,65.94
2019-03-01T00:44:44.062Z,66.28
2019-03-01T00:47:13.541Z,65.73
2019-03-01T00:49:42.816Z,65.69
2019-03-01T00:52:12.438Z,65.16
2019-03-01T00:54:41.767Z,65.08
2019-03-01T00:57:11.066Z,64.84
2019-03-01T00:59:40.357Z,65.75
2019-03-01T01:02:09.615Z,65.28
2019-03-01T01:04:38.918Z,65.36
2019-03-01T01:07:08.231Z,66.17
2019-03-01T01:09:37.529Z,65.38
2019-03-01T01:12:06.971Z,65.74
2019-03-01T01:14:36.231Z,65.97
2019-03-01T01:17:05.573Z,65.12
2019-03-01T01:19:34.838Z,64.72
2019-03-01T01:22:04.223Z,65.04
2019-03-01T01:24:33.533Z,65.85
2019-03-01T01:27:02.822Z,67.01
2019-03-01T01:29:32.094Z,66.09
2019-03-01T01:32:01.340Z,65.35
2019-03-01T01:34:30.660Z,66.25
2019-03-01T01:36:59.986Z,66.60
2019-03-01T01:39:29.268Z,66.34
2019-03-01T01:41:58.752Z,66.44
2019-03-01T01:44:27.990Z,68.42
2019-03-01T01:46:57.306Z,68.18
2019-03-01T01:49:26.555Z,68.61
2019-03-01T01:51:55.855Z,68.99
2019-03-01T01:54:25.084Z,69.79
2019-03-01T01:56:54.408Z,67.58
2019-03-01T01:59:23.645Z,68.30
2019-03-01T02:01:52.978Z,69.22
2019-03-01T02:04:22.217Z,68.67
2019-03-01T02:06:51.479Z,69.95
2019-03-01T02:09:26.302Z,68.54
2019-03-01T02:11:55.926Z,69.74
2019-03-01T02:14:25.212Z,68.84
2019-03-01T02:16:54.498Z,69.32
2019-03-01T02:19:23.760Z,69.69
2019-03-01T02:21:53.087Z,70.25
2019-03-01T02:24:22.352Z,69.50
2019-03-01T02:26:53.088Z,69.18
2019-03-01T02:29:22.376Z,69.55
2019-03-01T02:31:59.181Z,68.31
2019-03-01T02:34:28.443Z,68.17
2019-03-01T02:50:31.645Z,68.04
2019-03-01T02:53:30.566Z,68.05
2019-03-01T02:56:32.503Z,68.17
2019-03-01T02:59:31.705Z,69.67
2019-03-01T03:02:33.961Z,68.26
2019-03-01T03:05:35.783Z,69.32
2019-03-01T03:08:31.794Z,69.36
2019-03-01T03:11:33.977Z,68.72
2019-03-01T03:14:32.898Z,67.13
2019-03-01T03:17:32.008Z,66.48
2019-03-01T03:20:34.097Z,68.62
2019-03-01T03:23:33.250Z,67.92
2019-03-01T03:26:32.398Z,66.66
2019-03-01T03:29:34.408Z,65.20
2019-03-01T04:08:34.505Z,66.14
2019-03-01T04:11:33.755Z,66.82
2019-03-01T04:14:32.801Z,66.14
2019-03-01T04:17:31.708Z,67.02
2019-03-01T04:20:33.916Z,66.38
2019-03-01T04:43:29.532Z,66.17
2019-03-01T04:59:29.575Z,67.11
2019-03-01T05:17:34.154Z,65.65
2019-03-01T05:20:33.052Z,65.29
2019-03-01T05:23:31.991Z,65.12
2019-03-01T05:26:31.070Z,66.95
2019-03-01T05:29:29.954Z,66.32
2019-03-01T05:31:59.209Z,66.98
2019-03-01T05:34:28.485Z,67.64
2019-03-01T05:36:57.804Z,67.86
2019-03-01T05:39:32.997Z,68.22
2019-03-01T05:42:02.293Z,67.73
2019-03-01T05:44:31.569Z,67.49
2019-03-01T05:47:00.847Z,66.96
2019-03-01T05:49:30.110Z,66.36
2019-03-01T05:51:59.340Z,64.26
2019-03-01T05:54:28.603Z,65.91
2019-03-01T05:56:57.842Z,66.36
2019-03-01T05:59:28.691Z,66.99
2019-03-01T06:02:37.936Z,66.87
2019-03-01T06:05:17.602Z,66.81
2019-03-01T06:08:22.201Z,67.75
2019-03-01T06:11:19.734Z,67.15
2019-03-01T06:14:18.441Z,67.38
2019-03-01T06:17:14.403Z,68.34
2019-03-01T06:20:11.666Z,67.06
2019-03-01T06:23:11.669Z,67.50
2019-03-01T06:26:15.302Z,67.91
2019-03-01T06:29:00.267Z,69.58
2019-03-01T06:31:56.749Z,67.33
2019-03-01T06:34:42.315Z,66.68
2019-03-01T06:37:22.676Z,66.53
2019-03-01T06:40:17.365Z,66.44
2019-03-01T06:43:01.387Z,68.08
2019-03-01T06:46:03.267Z,67.10
2019-03-01T06:48:51.482Z,68.43
2019-03-01T06:57:47.670Z,66.53
2019-03-01T07:00:39.447Z,65.74
2019-03-01T07:03:32.269Z,65.95
2019-03-01T07:06:34.242Z,65.00
2019-03-01T07:09:33.034Z,67.01
2019-03-01T07:12:32.054Z,66.90
2019-03-01T07:15:34.100Z,66.85
2019-03-01T07:18:33.324Z,67.07
2019-03-01T07:21:32.111Z,66.50
2019-03-01T07:24:01.416Z,67.90
2019-03-01T07:26:33.681Z,66.86
2019-03-01T07:29:32.509Z,67.69
2019-03-01T07:32:31.713Z,65.35
2019-03-01T07:38:32.841Z,65.74
2019-03-01T07:41:32.080Z,64.80
2019-03-01T07:56:36.951Z,64.89
2019-03-01T07:59:37.925Z,65.81
2019-03-01T08:02:30.351Z,67.81
2019-03-01T08:07:55.716Z,66.41
2019-03-01T08:10:32.654Z,66.44
2019-03-01T08:15:48.760Z,67.78
2019-03-01T08:18:30.259Z,65.96
2019-03-01T08:23:46.513Z,66.70
2019-03-01T08:29:34.042Z,68.16
2019-03-01T08:32:33.258Z,65.96
2019-03-01T08:35:32.412Z,67.30
2019-03-01T08:38:33.305Z,66.09
2019-03-01T08:41:32.602Z,65.97
2019-03-01T08:44:31.506Z,68.69
2019-03-01T08:47:33.703Z,66.66
2019-03-01T08:50:32.848Z,65.55
2019-03-01T08:53:31.803Z,64.54
2019-03-01T08:56:34.114Z,67.31
2019-03-01T08:59:33.268Z,67.46
2019-03-01T09:02:32.202Z,68.72
2019-03-01T09:05:34.009Z,66.96
2019-03-01T09:11:32.534Z,66.04
2019-03-01T09:14:01.827Z,65.24
2019-03-01T09:16:34.156Z,65.96
2019-03-01T09:19:33.188Z,66.88
2019-03-01T09:22:33.714Z,64.96
2019-03-01T09:25:32.743Z,63.67
2019-03-01T09:28:32.742Z,65.08
2019-03-01T09:31:02.636Z,62.85
2019-03-01T09:33:34.708Z,68.85
2019-03-01T09:36:40.478Z,66.68
2019-03-01T09:39:32.642Z,66.37
2019-03-01T09:44:49.107Z,67.63
2019-03-01T09:47:36.822Z,68.99
2019-03-01T09:50:34.263Z,70.18
2019-03-01T09:53:34.128Z,68.31
2019-03-01T09:59:37.346Z,68.93
2019-03-01T10:02:33.283Z,68.89
2019-03-01T10:08:34.631Z,68.85
2019-03-01T10:11:33.575Z,67.80
2019-03-01T10:14:02.950Z,67.58
2019-03-01T10:16:35.339Z,70.52
2019-03-01T10:19:04.634Z,69.79
2019-03-01T10:21:33.920Z,68.79
2019-03-01T10:24:03.213Z,68.98
2019-03-01T10:26:32.547Z,70.48
2019-03-01T10:29:01.872Z,70.88
2019-03-01T10:31:31.126Z,70.84
2019-03-01T10:34:00.372Z,70.23
2019-03-01T10:36:29.652Z,69.60
2019-03-01T10:38:58.985Z,67.66
2019-03-01T10:41:28.307Z,70.27
2019-03-01T10:43:57.600Z,70.77
2019-03-01T10:46:26.924Z,70.85
2019-03-01T10:48:56.177Z,70.30
2019-03-01T10:51:25.494Z,69.90
2019-03-01T10:53:54.805Z,71.84
2019-03-01T10:56:24.068Z,72.10
2019-03-01T10:58:53.368Z,72.23
2019-03-01T11:01:22.660Z,73.49
2019-03-01T11:03:51.953Z,71.18
2019-03-01T11:06:21.259Z,72.40
2019-03-01T11:16:31.463Z,72.91
2019-03-01T12:14:30.475Z,72.22
2019-03-01T12:28:30.353Z,73.96
2019-03-01T13:22:30.807Z,61.94
2019-03-01T13:50:30.602Z,66.49
2019-03-01T14:11:32.272Z,62.28
2019-03-01T14:14:31.564Z,61.97
2019-03-01T14:21:33.059Z,60.39
2019-03-01T14:28:29.497Z,61.68
2019-03-01T14:58:49.036Z,62.13
2019-03-01T15:01:26.855Z,61.07
2019-03-01T15:03:54.719Z,61.41
2019-03-01T15:06:24.017Z,61.41
2019-03-01T15:08:53.432Z,60.79
2019-03-01T15:11:23.399Z,62.44
2019-03-01T15:13:53.960Z,62.58
2019-03-01T15:16:23.276Z,62.74
2019-03-01T15:18:52.537Z,61.97
2019-03-01T15:21:21.879Z,61.94
2019-03-01T15:31:31.651Z,61.56
2019-03-01T15:44:32.508Z,61.56
2019-03-01T15:47:31.771Z,60.47
2019-03-01T15:50:34.144Z,62.60
2019-03-01T16:04:33.628Z,62.83
2019-03-01T16:17:29.393Z,64.75
2019-03-01T16:20:31.684Z,65.15
2019-03-01T16:27:31.510Z,67.09
2019-03-01T16:30:33.486Z,66.87
2019-03-01T16:40:32.549Z,65.62
2019-03-01T17:04:32.686Z,63.30
2019-03-01T17:18:29.549Z,60.26
2019-03-01T17:21:31.880Z,60.66
2019-03-01T17:24:33.954Z,61.73
2019-03-01T17:45:33.317Z,59.46
2019-03-01T17:48:32.377Z,59.95
2019-03-01T17:51:31.610Z,60.01
2019-03-01T18:06:34.405Z,58.19
2019-03-01T18:09:33.622Z,58.66
2019-03-01T18:12:32.566Z,58.37
2019-03-01T18:29:30.448Z,58.36
2019-03-01T18:36:31.561Z,56.64
2019-03-01T18:39:03.773Z,58.08
2019-03-01T18:41:31.861Z,57.48
2019-03-01T18:44:30.590Z,57.78
2019-03-01T18:47:00.366Z,58.29
2019-03-01T18:49:29.652Z,59.08
2019-03-01T18:52:31.541Z,58.24
2019-03-01T18:57:47.675Z,58.43
2019-03-01T19:00:25.544Z,57.03
2019-03-01T19:02:54.935Z,57.40
2019-03-01T19:05:36.620Z,58.25
2019-03-01T19:08:36.405Z,56.79
2019-03-01T19:11:34.672Z,57.03
2019-03-01T19:14:03.233Z,58.35
2019-03-01T19:16:32.552Z,57.93
2019-03-01T19:19:01.914Z,58.67
2019-03-01T19:21:31.254Z,58.49
2019-03-01T19:24:00.636Z,57.60
2019-03-01T19:26:29.960Z,58.02
2019-03-01T19:29:02.696Z,58.67
2019-03-01T19:31:30.248Z,58.79
2019-03-01T19:33:59.637Z,57.61
2019-03-01T19:36:28.921Z,58.19
2019-03-01T19:42:37.966Z,57.36
2019-03-01T19:45:34.098Z,57.61
2019-03-01T19:48:34.497Z,59.09
2019-03-01T19:51:33.780Z,58.06
2019-03-01T19:54:35.674Z,58.16
2019-03-01T19:57:33.623Z,57.39
2019-03-01T20:00:32.509Z,57.17
2019-03-01T20:03:31.729Z,56.99
2019-03-01T20:06:33.833Z,57.21
2019-03-01T20:09:32.851Z,57.36
2019-03-01T20:12:32.117Z,57.92
2019-03-01T20:15:34.382Z,58.07
2019-03-01T20:18:33.341Z,58.32
2019-03-01T20:21:32.334Z,59.62
2019-03-01T20:24:31.488Z,59.62
2019-03-01T20:27:35.506Z,58.74
2019-03-01T20:30:31.697Z,59.74
2019-03-01T20:33:33.840Z,59.90
2019-03-01T20:36:32.791Z,58.70
2019-03-01T20:44:36.018Z,58.43
2019-03-01T20:47:32.259Z,57.97
2019-03-01T20:50:36.418Z,57.46
2019-03-01T20:53:32.074Z,56.96
2019-03-01T20:56:34.135Z,56.07
2019-03-01T20:59:33.054Z,56.16
2019-03-01T21:06:34.050Z,55.90
2019-03-01T21:09:32.958Z,55.06
2019-03-01T21:12:33.460Z,55.90
2019-03-01T21:15:34.609Z,56.13
2019-03-01T21:18:34.096Z,55.50
2019-03-01T21:21:33.944Z,56.12
2019-03-01T21:30:39.871Z,56.75
2019-03-01T21:33:32.769Z,57.19
2019-03-01T21:36:30.829Z,57.57
2019-03-01T21:39:32.723Z,57.35
2019-03-01T21:42:31.676Z,57.10
2019-03-01T21:45:30.558Z,57.37
2019-03-01T21:48:32.796Z,57.97
2019-03-01T21:51:31.891Z,58.33
2019-03-01T21:54:34.168Z,57.92
2019-03-01T21:57:33.073Z,57.59
2019-03-01T22:00:31.188Z,57.62
2019-03-01T22:03:32.936Z,57.48
2019-03-01T22:06:31.962Z,56.85
2019-03-01T22:09:33.928Z,55.95
2019-03-01T22:12:32.793Z,56.47
2019-03-01T22:15:32.101Z,57.44
2019-03-01T22:18:31.174Z,57.14
2019-03-01T22:21:33.064Z,57.13
2019-03-01T22:24:34.126Z,57.52
2019-03-01T22:27:32.751Z,56.33
2019-03-01T22:30:31.711Z,57.52
2019-03-01T22:33:33.729Z,57.23
2019-03-01T22:36:32.676Z,57.17
2019-03-01T22:39:31.623Z,56.73
2019-03-01T22:42:33.626Z,57.43
2019-03-01T22:45:32.847Z,57.22
2019-03-01T22:48:32.038Z,56.96
2019-03-01T23:01:32.730Z,58.33
2019-03-01T23:04:30.388Z,57.76
2019-03-01T23:07:32.552Z,56.75
2019-03-01T23:10:31.415Z,56.58
2019-03-01T23:13:33.303Z,57.01
2019-03-01T23:16:32.121Z,56.14
2019-03-01T23:29:32.942Z,57.08
2019-03-01T23:34:48.935Z,57.16
2019-03-01T23:37:18.240Z,57.78
2019-03-01T23:39:48.547Z,57.89
2019-03-01T23:42:20.875Z,57.07
2019-03-01T23:44:48.949Z,57.93
2019-03-01T23:47:18.267Z,57.02
2019-03-01T23:49:47.547Z,56.74
2019-03-01T23:52:19.564Z,57.93
